»·PEaware :: N59WV KOXR-KRNM

N59WV :: KOXR-KRNM

FLIGHT INFORMATION

Flight Status: Arrived
Operator: Privately registered:
United States
More flights under this callsign
Pilot: Graham S. (10862)
Aircraft: MOONEY M-20 201 202 205 220 ATS MSE
(M20P)
More flights by this aircraft type
Origin: KOXR Oxnard
United States
Destination: KRNM Ramona
United States
More flights between these airports :: More routes between these airports
Route: VTU044 GINNA V326 VNY V186 ROBNN V208 JLI
File this flight plan on PilotEdge
Remarks:
Altitude:
(Current/Filed)
7,000ft
Speed:
(Current/Filed)
180kts
Departed: 31-Jan-21 03:38 PM
Arrived: 31-Jan-21 04:47 PM
Distance/Time
Traveled:
134nm/1:08
Distance/Time
To Go:
Arrived

Flight Plot

Page will automatically refresh every two minutes.


Map Options




Map Legend


Flown Route
Filed Route
Departure Airport
Arrival Airport
Navaid (VOR, NDB)
Fix

Horizontal Profiles

Position Reports

Time Latitude Longitude Heading Altitude Ground
Speed
31-Jan-21 15:13 34.198727 -119.202074 359 43ft 0kts
31-Jan-21 15:14 34.198727 -119.202074 359 43ft 0kts
31-Jan-21 15:15 34.198728 -119.202074 359 43ft 0kts
31-Jan-21 15:16 34.198728 -119.202074 359 43ft 0kts
31-Jan-21 15:17 34.198728 -119.202074 359 43ft 0kts
31-Jan-21 15:18 34.198728 -119.202074 359 43ft 0kts
31-Jan-21 15:19 34.198728 -119.202074 359 43ft 0kts
31-Jan-21 15:20 34.198728 -119.202074 359 43ft 0kts
31-Jan-21 15:21 34.198728 -119.202074 359 43ft 0kts
31-Jan-21 15:22 34.198728 -119.202074 359 43ft 0kts
31-Jan-21 15:23 34.198728 -119.202074 359 43ft 0kts
31-Jan-21 15:24 34.198728 -119.202074 359 43ft 0kts
31-Jan-21 15:25 34.198728 -119.202074 359 43ft 0kts
31-Jan-21 15:26 34.198728 -119.202074 359 43ft 0kts
31-Jan-21 15:27 34.198728 -119.202074 359 43ft 0kts
31-Jan-21 15:28 34.198728 -119.202074 359 43ft 0kts
31-Jan-21 15:29 34.198728 -119.202074 359 43ft 0kts
31-Jan-21 15:30 34.198728 -119.202074 359 43ft 0kts
31-Jan-21 15:31 34.198728 -119.202074 359 43ft 0kts
31-Jan-21 15:32 34.198728 -119.202074 359 43ft 0kts
31-Jan-21 15:33 34.198787 -119.202075 358 43ft 2kts
31-Jan-21 15:34 34.199371 -119.202187 357 43ft 1kts
31-Jan-21 15:35 34.199662 -119.201164 74 43ft 5kts
31-Jan-21 15:36 34.199800 -119.198422 88 43ft 18kts
31-Jan-21 15:37 34.200724 -119.198700 268 43ft 41kts
31-Jan-21 15:38 34.201648 -119.232173 273 573ft 114kts
31-Jan-21 15:39 34.200278 -119.265499 269 2160ft 94kts
31-Jan-21 15:40 34.200817 -119.296240 316 3448ft 89kts
31-Jan-21 15:41 34.222424 -119.305494 42 4605ft 93kts
31-Jan-21 15:42 34.220716 -119.271684 110 5599ft 109kts
31-Jan-21 15:43 34.219981 -119.233552 93 6645ft 112kts
31-Jan-21 15:44 34.220448 -119.194920 94 7642ft 112kts
31-Jan-21 15:45 34.220881 -119.140119 92 6993ft 172kts
31-Jan-21 15:46 34.221428 -119.083595 91 6995ft 160kts
31-Jan-21 15:47 34.221843 -119.029398 92 6987ft 157kts
31-Jan-21 15:48 34.222112 -118.976466 92 6988ft 154kts
31-Jan-21 15:49 34.222319 -118.923116 94 6991ft 159kts
31-Jan-21 15:51 34.222560 -118.867644 92 6992ft 158kts
31-Jan-21 15:52 34.222451 -118.813562 90 6987ft 157kts
31-Jan-21 15:53 34.222715 -118.757611 91 6997ft 164kts
31-Jan-21 15:54 34.223152 -118.702446 92 7008ft 160kts
31-Jan-21 15:55 34.223319 -118.646501 90 7014ft 167kts
31-Jan-21 15:56 34.223546 -118.587830 91 7007ft 173kts
31-Jan-21 15:57 34.223846 -118.533537 92 7011ft 145kts
31-Jan-21 15:58 34.223965 -118.485015 92 7011ft 137kts
31-Jan-21 15:59 34.207653 -118.442829 120 7015ft 156kts
31-Jan-21 16:00 34.190428 -118.387250 112 7009ft 183kts
31-Jan-21 16:01 34.171692 -118.327351 112 7010ft 190kts
31-Jan-21 16:02 34.161793 -118.262723 105 7009ft 192kts
31-Jan-21 16:03 34.149989 -118.198514 104 7004ft 190kts
31-Jan-21 16:04 34.139352 -118.137732 104 7008ft 173kts
31-Jan-21 16:05 34.129560 -118.081007 104 7011ft 167kts
31-Jan-21 16:05 34.121653 -118.035085 104 7009ft 166kts
31-Jan-21 16:07 34.110372 -117.969650 104 7007ft 168kts
31-Jan-21 16:07 34.102135 -117.921990 104 7009ft 173kts
31-Jan-21 16:08 34.092057 -117.863798 104 7002ft 175kts
31-Jan-21 16:10 34.079667 -117.795534 116 6994ft 174kts
31-Jan-21 16:10 34.056367 -117.756376 118 7008ft 174kts
31-Jan-21 16:11 34.029062 -117.707171 129 7012ft 174kts
31-Jan-21 16:12 33.999241 -117.659394 129 7013ft 175kts
31-Jan-21 16:13 33.969616 -117.612170 127 6994ft 172kts
31-Jan-21 16:15 33.934970 -117.557464 124 7015ft 173kts
31-Jan-21 16:15 33.908399 -117.520715 148 7024ft 172kts
31-Jan-21 16:16 33.868355 -117.487256 143 7010ft 172kts
31-Jan-21 16:17 33.828257 -117.453356 143 7005ft 177kts
31-Jan-21 16:18 33.788163 -117.419535 143 6986ft 172kts
31-Jan-21 16:19 33.748513 -117.386136 144 6996ft 169kts
31-Jan-21 16:20 33.708836 -117.352544 145 7008ft 174kts
31-Jan-21 16:21 33.668678 -117.319389 147 7018ft 174kts
31-Jan-21 16:22 33.628222 -117.285169 147 7025ft 174kts
31-Jan-21 16:23 33.587633 -117.251324 149 7019ft 173kts
31-Jan-21 16:24 33.547403 -117.217460 146 6995ft 174kts
31-Jan-21 16:25 33.506665 -117.183981 145 6999ft 174kts
31-Jan-21 16:26 33.463555 -117.158521 166 7026ft 175kts
31-Jan-21 16:27 33.416565 -117.144839 166 7011ft 175kts
31-Jan-21 16:28 33.367248 -117.140871 172 7009ft 176kts
31-Jan-21 16:29 33.318554 -117.130006 170 7013ft 176kts
31-Jan-21 16:30 33.270085 -117.119512 168 7007ft 173kts
31-Jan-21 16:31 33.222056 -117.109185 168 7011ft 172kts
31-Jan-21 16:32 33.200874 -117.064784 97 7012ft 170kts
31-Jan-21 16:33 33.197800 -117.007711 102 7006ft 170kts
31-Jan-21 16:34 33.188688 -116.951759 101 7008ft 170kts
31-Jan-21 16:35 33.180981 -116.895435 100 7009ft 170kts
31-Jan-21 16:36 33.173634 -116.838982 99 7010ft 170kts
31-Jan-21 16:37 33.166316 -116.782456 99 7010ft 170kts
31-Jan-21 16:38 33.159016 -116.726047 99 7009ft 170kts
31-Jan-21 16:39 33.150099 -116.670519 125 6998ft 169kts
31-Jan-21 16:40 33.118627 -116.694014 251 7006ft 178kts
31-Jan-21 16:41 33.104739 -116.751979 251 6886ft 186kts
31-Jan-21 16:42 33.089025 -116.815582 252 5872ft 191kts
31-Jan-21 16:43 33.075466 -116.868502 250 4658ft 137kts
31-Jan-21 16:44 33.057829 -116.903633 237 2814ft 113kts
31-Jan-21 16:45 33.047799 -116.934265 182 1790ft 92kts
31-Jan-21 16:46 33.039610 -116.918770 80 1397ft 25kts
31-Jan-21 16:47 33.039579 -116.915037 26 1397ft 0kts
31-Jan-21 16:48 33.041092 -116.913270 6 1397ft 0kts
31-Jan-21 16:49 33.041094 -116.913270 6 1397ft 0kts

Navigation Log

Ident Type
Flight plan parsing failed, navigation log unavailable